Eureka, Alaska
Current Conditions -  °F | °C
As of 10:16 PM on Friday 31 Oct 2014 (Local Time) from PAZK Reporting Station
Overcast Overcast  
Wind Chill: 12°   Ceiling: 1000
Heat Index: 12°   Visibility: 10mi
Dew Point: 10°   Wind: 3mph
Humidity: 92%   Direction: 130°SE
Pressure: 29.17"   Gusts: NA
Location:  61.94°N, 147.17°W
Report Text: PAZK 010616Z AUTO 13003KT 10SM OVC010 M11/M12 A2917 RMK AO1
Loading
Personal Weather Stations






























Interactive Weather Map
Tropical Storm Tracking
New forecast layout! Learn more

10-Day Weather Forecast

Advertisements
Track Severe Weather on mobile